Current Weather

Kirkuk Ab

Kirkuk Ab, Iraq (ORKK)

Report from: Thursday, July 18, 2024 12:00 PM UTC
Current time: Thursday, July 18, 2024 1:41 PM UTC

Nearby weather – Weather history – Daily summaries
Weather forecast

Temperature43.0°C (109.4°F)
Heat index40.1°C (104.3°F)
Dew point5.0°C (41.0°F)
Winds 8 kts (4.1 m/s, 9.2 mph) Vrb
Wind gusts 18 kts (9.3 m/s, 20.7 mph)
Winds variableWinds variable from South-Southwest (210°) to North (350°)
Clouds Sky clear
Altimeter29.50 in.Hg (999 mB)
Relative humidity10 %
Density altitude3,733 ft. (1,138 m)
Remarks Ceiling and visibility OK
Flight conditions Visual Meteorological Conditions
Raw dataORKK 181200Z 28008G18KT 210V350 CAVOK 43/05 Q0999
An error has occurred. This application may no longer respond until reloaded. Reload 🗙